createdAt,value
2023-04-26T00:00:18.604Z,100102.28
2023-04-26T00:02:46.340Z,100109.31
2023-04-26T00:05:15.160Z,100105.84
2023-04-26T00:07:42.846Z,100104.16
2023-04-26T00:10:10.824Z,100106.84
2023-04-26T00:12:38.627Z,100106.09
2023-04-26T00:15:06.247Z,100102.69
2023-04-26T00:17:33.874Z,100110.59
2023-04-26T00:20:01.718Z,100109.66
2023-04-26T00:22:29.265Z,100115.88
2023-04-26T00:24:57.327Z,100109.72
2023-04-26T00:27:24.963Z,100107.03
2023-04-26T00:29:52.869Z,100108.78
2023-04-26T00:32:20.779Z,100108.84
2023-04-26T00:34:48.414Z,100101.13
2023-04-26T00:37:16.744Z,100102.06
2023-04-26T00:39:44.295Z,100096.03
2023-04-26T00:42:12.314Z,100106.63
2023-04-26T00:44:40.619Z,100103.22
2023-04-26T00:47:08.168Z,100105.00
2023-04-26T00:49:36.148Z,100098.03
2023-04-26T00:52:03.814Z,100102.53
2023-04-26T00:54:32.097Z,100093.69
2023-04-26T00:57:00.777Z,100093.47
2023-04-26T00:59:28.351Z,100088.25
2023-04-26T01:01:56.369Z,100090.06
2023-04-26T01:04:26.413Z,100097.09
2023-04-26T01:06:54.317Z,100080.34
2023-04-26T01:09:21.886Z,100093.53
2023-04-26T01:11:49.470Z,100091.06
2023-04-26T01:14:17.322Z,100086.56
2023-04-26T01:16:46.988Z,100089.03
2023-04-26T01:19:15.505Z,100096.03
2023-04-26T01:21:43.099Z,100088.13
2023-04-26T01:24:10.713Z,100093.47
2023-04-26T01:26:44.124Z,100091.81
2023-04-26T01:29:11.716Z,100096.22
2023-04-26T01:31:39.692Z,100084.84
2023-04-26T01:34:07.319Z,100094.69
2023-04-26T01:36:34.871Z,100099.28
2023-04-26T01:39:03.899Z,100095.06
2023-04-26T01:41:31.594Z,100103.16
2023-04-26T01:43:59.538Z,100092.91
2023-04-26T01:46:27.221Z,100104.44
2023-04-26T01:48:55.026Z,100100.22
2023-04-26T01:51:22.840Z,100110.75
2023-04-26T01:53:50.483Z,100111.59
2023-04-26T01:56:18.757Z,100105.47
2023-04-26T01:58:46.337Z,100109.72
2023-04-26T02:01:14.229Z,100106.25
2023-04-26T02:03:42.043Z,100101.81
2023-04-26T02:06:09.852Z,100103.63
2023-04-26T02:08:37.703Z,100105.38
2023-04-26T02:11:05.360Z,100102.91
2023-04-26T02:13:32.940Z,100099.56
2023-04-26T02:16:00.688Z,100096.94
2023-04-26T02:18:29.902Z,100091.75
2023-04-26T02:20:57.910Z,100094.59
2023-04-26T02:23:25.588Z,100101.81
2023-04-26T02:25:53.172Z,100101.09
2023-04-26T02:28:21.102Z,100099.56
2023-04-26T02:30:48.668Z,100102.50
2023-04-26T02:33:16.653Z,100112.38
2023-04-26T02:35:44.216Z,100112.69
2023-04-26T02:38:11.821Z,100109.50
2023-04-26T02:40:39.454Z,100102.88
2023-04-26T02:43:07.275Z,100104.09
2023-04-26T02:45:35.508Z,100104.41
2023-04-26T02:48:03.418Z,100109.09
2023-04-26T02:50:31.107Z,100110.25
2023-04-26T02:52:59.014Z,100110.63
2023-04-26T02:55:26.630Z,100104.91
2023-04-26T02:57:54.465Z,100108.91
2023-04-26T03:00:22.335Z,100100.56
2023-04-26T03:02:50.044Z,100106.25
2023-04-26T03:05:18.022Z,100105.88
2023-04-26T03:07:45.891Z,100095.06
2023-04-26T03:10:13.842Z,100105.09
2023-04-26T03:12:41.705Z,100102.81
2023-04-26T03:15:09.680Z,100114.44
2023-04-26T03:17:37.466Z,100104.13
2023-04-26T03:20:06.251Z,100113.00
2023-04-26T03:22:33.875Z,100106.16
2023-04-26T03:25:01.801Z,100107.16
2023-04-26T03:27:29.349Z,100098.59
2023-04-26T03:29:57.727Z,100103.94
2023-04-26T03:32:25.459Z,100104.91
2023-04-26T03:34:53.130Z,100105.13
2023-04-26T03:37:20.669Z,100106.09
2023-04-26T03:39:48.249Z,100108.78
2023-04-26T03:42:15.855Z,100100.97
2023-04-26T03:44:43.387Z,100101.91
2023-04-26T03:47:11.388Z,100096.72
2023-04-26T03:49:39.021Z,100102.03
2023-04-26T03:52:06.584Z,100101.09
2023-04-26T03:54:34.311Z,100101.09
2023-04-26T03:57:01.889Z,100102.69
2023-04-26T03:59:29.818Z,100100.69
2023-04-26T04:01:57.473Z,100100.69
2023-04-26T04:04:25.279Z,100099.16
2023-04-26T04:06:56.135Z,100103.66
2023-04-26T04:09:23.950Z,100097.69
2023-04-26T04:11:52.206Z,100101.22
2023-04-26T04:14:20.071Z,100101.22
2023-04-26T04:16:47.799Z,100096.00
2023-04-26T04:19:18.879Z,100100.38
2023-04-26T04:21:46.484Z,100096.97
2023-04-26T04:24:14.494Z,100099.66
2023-04-26T04:26:50.685Z,100097.88
2023-04-26T04:29:24.272Z,100101.44
2023-04-26T04:31:58.277Z,100105.88
2023-04-26T04:37:40.891Z,100102.25
2023-04-26T04:43:31.050Z,100110.94
2023-04-26T04:46:16.779Z,100118.69
2023-04-26T04:51:32.993Z,100120.38
2023-04-26T04:57:37.295Z,100115.81
2023-04-26T05:03:38.037Z,100123.09
2023-04-26T05:06:26.277Z,100115.81
2023-04-26T05:12:16.975Z,100122.72
2023-04-26T05:17:47.208Z,100124.44
2023-04-26T05:23:45.325Z,100124.47
2023-04-26T05:26:47.545Z,100122.13
2023-04-26T05:29:35.437Z,100129.19
2023-04-26T05:32:03.132Z,100134.81
2023-04-26T05:34:58.756Z,100133.53
2023-04-26T05:55:40.097Z,100143.44
2023-04-26T06:04:40.978Z,100136.34
2023-04-26T06:10:07.079Z,100146.28
2023-04-26T06:18:55.640Z,100146.75
2023-04-26T06:31:05.311Z,100166.34
2023-04-26T06:37:05.582Z,100157.41
2023-04-26T06:39:54.747Z,100150.56
2023-04-26T06:48:21.296Z,100151.53
2023-04-26T06:50:48.867Z,100157.97
2023-04-26T06:53:50.109Z,100149.47
2023-04-26T06:56:24.859Z,100141.59
2023-04-26T07:02:26.316Z,100149.78
2023-04-26T07:04:54.468Z,100158.84
2023-04-26T07:07:37.474Z,100156.38
2023-04-26T07:10:28.711Z,100155.13
2023-04-26T07:16:31.334Z,100155.09
2023-04-26T07:22:32.592Z,100148.38
2023-04-26T07:25:00.314Z,100145.25
2023-04-26T07:30:37.922Z,100141.91
2023-04-26T07:36:39.952Z,100148.94
2023-04-26T07:45:47.053Z,100143.31
2023-04-26T08:00:50.161Z,100141.59
2023-04-26T08:03:34.917Z,100140.97
2023-04-26T08:06:03.257Z,100144.38
2023-04-26T08:08:32.480Z,100140.97
2023-04-26T08:11:00.854Z,100142.94
2023-04-26T08:13:29.634Z,100144.66
2023-04-26T08:15:57.845Z,100133.41
2023-04-26T08:18:25.932Z,100132.25
2023-04-26T08:20:55.535Z,100134.94
2023-04-26T08:23:24.260Z,100136.34
2023-04-26T08:25:52.313Z,100127.41
2023-04-26T08:28:21.550Z,100136.19
2023-04-26T08:30:49.284Z,100135.59
2023-04-26T08:33:17.709Z,100131.31
2023-04-26T08:35:45.628Z,100130.16
2023-04-26T08:38:13.319Z,100138.13
2023-04-26T08:40:41.532Z,100130.69
2023-04-26T08:43:09.345Z,100136.91
2023-04-26T08:45:37.157Z,100130.25
2023-04-26T08:48:09.947Z,100129.47
2023-04-26T08:50:37.897Z,100123.84
2023-04-26T08:53:06.072Z,100115.91
2023-04-26T08:55:33.965Z,100120.03
2023-04-26T08:58:01.904Z,100123.91
2023-04-26T09:00:30.223Z,100128.28
2023-04-26T09:02:58.346Z,100119.41
2023-04-26T09:05:27.465Z,100131.41
2023-04-26T09:07:55.220Z,100136.94
2023-04-26T09:10:23.591Z,100137.75
2023-04-26T09:12:51.534Z,100142.56
2023-04-26T09:15:19.265Z,100137.16
2023-04-26T09:17:47.881Z,100138.53
2023-04-26T09:20:15.866Z,100129.09
2023-04-26T09:22:43.662Z,100129.13
2023-04-26T09:25:12.353Z,100124.00
2023-04-26T09:27:40.181Z,100130.59
2023-04-26T09:30:08.311Z,100132.03
2023-04-26T09:32:36.556Z,100128.06
2023-04-26T09:35:04.938Z,100129.00
2023-04-26T09:37:34.373Z,100133.00
2023-04-26T09:40:02.280Z,100132.34
2023-04-26T09:42:30.024Z,100132.94
2023-04-26T09:44:57.901Z,100136.50
2023-04-26T09:47:26.196Z,100126.94
2023-04-26T09:49:54.418Z,100112.50
2023-04-26T09:52:22.230Z,100117.63
2023-04-26T09:54:52.194Z,100122.09
2023-04-26T09:57:20.290Z,100117.72
2023-04-26T09:59:48.254Z,100130.31
2023-04-26T10:02:17.424Z,100131.06
2023-04-26T10:04:45.703Z,100133.16
2023-04-26T10:07:13.536Z,100134.72
2023-04-26T10:09:41.885Z,100129.09
2023-04-26T10:12:09.900Z,100134.44
2023-04-26T10:14:38.441Z,100127.41
2023-04-26T10:17:07.842Z,100125.47
2023-04-26T10:19:36.147Z,100127.16
2023-04-26T10:22:04.132Z,100125.47
2023-04-26T10:24:32.043Z,100113.34
2023-04-26T10:27:01.851Z,100119.66
2023-04-26T10:29:29.778Z,100112.88
2023-04-26T10:31:57.778Z,100111.44
2023-04-26T10:34:25.744Z,100100.06
2023-04-26T10:36:53.558Z,100098.56
2023-04-26T10:39:22.875Z,100108.00
2023-04-26T10:41:50.773Z,100096.75
2023-04-26T10:44:18.836Z,100106.31
2023-04-26T10:46:47.105Z,100108.75
2023-04-26T10:49:15.216Z,100101.03
2023-04-26T10:51:43.361Z,100104.88
2023-04-26T10:54:11.303Z,100101.84
2023-04-26T10:56:39.402Z,100099.28
2023-04-26T10:59:22.593Z,100087.06
2023-04-26T11:01:55.607Z,100100.81
2023-04-26T11:04:23.671Z,100097.34
2023-04-26T11:06:51.989Z,100091.59
2023-04-26T11:09:20.152Z,100072.34
2023-04-26T11:11:48.085Z,100071.63
2023-04-26T11:14:16.753Z,100076.25
2023-04-26T11:16:44.665Z,100076.97
2023-04-26T11:19:12.848Z,100078.66
2023-04-26T11:21:40.986Z,100084.16
2023-04-26T11:24:08.957Z,100085.25
2023-04-26T11:26:37.705Z,100090.66
2023-04-26T11:29:05.504Z,100093.72
2023-04-26T11:31:33.806Z,100100.84
2023-04-26T11:34:01.626Z,100098.41
2023-04-26T11:36:30.201Z,100092.97
2023-04-26T11:38:58.816Z,100095.00
2023-04-26T11:41:27.593Z,100092.94
2023-04-26T11:43:55.633Z,100095.69
2023-04-26T11:46:24.636Z,100081.97
2023-04-26T11:48:52.967Z,100079.50
2023-04-26T11:51:21.479Z,100088.00
2023-04-26T11:53:49.754Z,100081.25
2023-04-26T11:56:18.239Z,100084.81
2023-04-26T11:58:45.970Z,100084.31
2023-04-26T12:01:13.812Z,100085.88
2023-04-26T12:03:42.419Z,100077.09
2023-04-26T12:06:10.681Z,100086.66
2023-04-26T12:08:38.768Z,100087.47
2023-04-26T12:11:06.586Z,100088.38
2023-04-26T12:13:34.385Z,100089.84
2023-04-26T12:16:05.345Z,100089.97
2023-04-26T12:18:35.352Z,100093.25
2023-04-26T12:21:04.087Z,100093.44
2023-04-26T12:23:32.157Z,100098.72
2023-04-26T12:26:02.339Z,100094.81
2023-04-26T12:28:30.711Z,100103.00
2023-04-26T12:30:58.565Z,100102.28
2023-04-26T12:33:26.875Z,100101.25
2023-04-26T12:35:54.913Z,100100.81
2023-04-26T12:38:22.840Z,100107.91
2023-04-26T12:40:51.383Z,100108.69
2023-04-26T12:43:20.287Z,100099.22
2023-04-26T12:45:48.373Z,100098.09
2023-04-26T12:48:17.030Z,100099.34
2023-04-26T12:50:46.182Z,100082.38
2023-04-26T12:53:14.559Z,100078.69
2023-04-26T12:55:42.254Z,100073.88
2023-04-26T12:58:10.478Z,100068.44
2023-04-26T13:00:38.566Z,100069.91
2023-04-26T13:03:06.941Z,100073.41
2023-04-26T13:05:35.434Z,100068.09
2023-04-26T13:08:03.248Z,100063.81
2023-04-26T13:10:33.167Z,100071.13
2023-04-26T13:13:01.797Z,100072.63
2023-04-26T13:15:30.219Z,100062.34
2023-04-26T13:17:58.443Z,100059.53
2023-04-26T13:20:27.277Z,100059.94
2023-04-26T13:22:57.082Z,100058.75
2023-04-26T13:25:25.071Z,100067.75
2023-04-26T13:27:55.063Z,100063.19
2023-04-26T13:30:23.554Z,100059.88
2023-04-26T13:32:51.757Z,100072.94
2023-04-26T13:35:20.136Z,100075.53
2023-04-26T13:37:47.946Z,100073.97
2023-04-26T13:40:15.789Z,100078.09
2023-04-26T13:42:44.227Z,100069.66
2023-04-26T13:45:14.382Z,100070.84
2023-04-26T13:47:42.270Z,100082.59
2023-04-26T13:50:10.527Z,100083.19
2023-04-26T13:52:38.500Z,100082.03
2023-04-26T13:55:07.241Z,100081.75
2023-04-26T13:57:35.215Z,100078.50
2023-04-26T14:00:04.537Z,100083.16
2023-04-26T14:02:32.533Z,100079.31
2023-04-26T14:05:00.969Z,100082.56
2023-04-26T14:07:29.584Z,100084.63
2023-04-26T14:09:57.489Z,100082.75
2023-04-26T14:12:25.938Z,100082.31
2023-04-26T14:14:54.151Z,100078.78
2023-04-26T14:17:22.000Z,100077.13
2023-04-26T14:19:50.878Z,100074.50
2023-04-26T14:22:19.971Z,100073.00
2023-04-26T14:24:48.039Z,100056.88
2023-04-26T14:27:16.139Z,100057.47
2023-04-26T14:29:44.101Z,100047.06
2023-04-26T14:32:13.034Z,100057.31
2023-04-26T14:34:41.206Z,100062.88
2023-04-26T14:37:10.713Z,100068.31
2023-04-26T14:39:38.556Z,100071.38
2023-04-26T14:42:07.248Z,100066.75
2023-04-26T14:44:35.950Z,100065.69
2023-04-26T14:47:03.733Z,100074.72
2023-04-26T14:49:31.861Z,100064.50
2023-04-26T14:51:59.742Z,100061.44
2023-04-26T14:54:27.649Z,100061.56
2023-04-26T14:56:56.119Z,100059.94
2023-04-26T14:59:24.411Z,100062.69
2023-04-26T15:01:53.610Z,100063.09
2023-04-26T15:04:21.939Z,100063.72
2023-04-26T15:06:49.922Z,100056.03
2023-04-26T15:09:18.053Z,100058.91
2023-04-26T15:11:46.181Z,100068.50
2023-04-26T15:14:14.573Z,100062.47
2023-04-26T15:16:42.549Z,100055.81
2023-04-26T15:19:10.809Z,100058.34
2023-04-26T15:21:39.225Z,100049.19
2023-04-26T15:24:07.888Z,100055.09
2023-04-26T15:26:35.887Z,100057.22
2023-04-26T15:29:03.967Z,100060.75
2023-04-26T15:31:31.911Z,100065.09
2023-04-26T15:34:00.336Z,100061.94
2023-04-26T15:36:28.493Z,100055.56
2023-04-26T15:38:56.457Z,100062.44
2023-04-26T15:41:24.789Z,100056.81
2023-04-26T15:43:52.578Z,100048.69
2023-04-26T15:46:20.928Z,100054.06
2023-04-26T15:48:48.869Z,100049.06
2023-04-26T15:51:17.085Z,100045.13
2023-04-26T15:53:44.940Z,100050.06
2023-04-26T15:56:12.876Z,100030.41
2023-04-26T15:58:42.286Z,100038.22
2023-04-26T16:01:10.310Z,100038.78
2023-04-26T16:03:39.361Z,100038.38
2023-04-26T16:06:08.236Z,100044.53
2023-04-26T16:08:40.469Z,100055.69
2023-04-26T16:11:09.405Z,100046.94
2023-04-26T16:13:37.640Z,100050.56
2023-04-26T16:16:05.808Z,100053.25
2023-04-26T16:18:34.448Z,100054.22
2023-04-26T16:21:02.284Z,100054.78
2023-04-26T16:23:31.056Z,100047.88
2023-04-26T16:25:59.179Z,100046.47
2023-04-26T16:28:27.398Z,100049.13
2023-04-26T16:30:55.334Z,100048.13
2023-04-26T16:33:23.851Z,100048.94
2023-04-26T16:35:53.216Z,100047.47
2023-04-26T16:38:21.105Z,100047.88
2023-04-26T16:40:49.101Z,100047.91
2023-04-26T16:43:17.108Z,100051.78
2023-04-26T16:45:45.289Z,100047.91
2023-04-26T16:48:14.036Z,100045.13
2023-04-26T16:50:41.926Z,100055.06
2023-04-26T16:53:09.911Z,100061.81
2023-04-26T16:55:37.760Z,100058.34
2023-04-26T16:58:05.636Z,100065.16
2023-04-26T17:00:34.154Z,100066.66
2023-04-26T17:03:02.217Z,100064.63
2023-04-26T17:05:30.404Z,100070.59
2023-04-26T17:07:58.495Z,100056.75
2023-04-26T17:10:26.421Z,100070.34
2023-04-26T17:12:54.783Z,100073.59
2023-04-26T17:15:22.608Z,100067.78
2023-04-26T17:17:50.985Z,100075.34
2023-04-26T17:20:18.905Z,100073.88
2023-04-26T17:22:46.778Z,100081.38
2023-04-26T17:25:14.637Z,100078.25
2023-04-26T17:27:42.451Z,100073.28
2023-04-26T17:30:11.804Z,100076.56
2023-04-26T17:32:39.807Z,100072.69
2023-04-26T17:35:07.925Z,100077.66
2023-04-26T17:37:36.068Z,100067.59
2023-04-26T17:40:06.387Z,100070.75
2023-04-26T17:42:34.427Z,100071.44
2023-04-26T17:45:02.789Z,100076.53
2023-04-26T17:47:31.439Z,100069.16
2023-04-26T17:49:59.624Z,100074.84
2023-04-26T17:52:28.141Z,100079.75
2023-04-26T17:54:56.395Z,100074.06
2023-04-26T17:57:24.408Z,100083.38
2023-04-26T17:59:53.032Z,100080.31
2023-04-26T18:02:21.495Z,100090.50
2023-04-26T18:04:49.556Z,100084.91
2023-04-26T18:07:17.530Z,100085.34
2023-04-26T18:09:45.408Z,100093.88
2023-04-26T18:12:13.319Z,100091.78
2023-04-26T18:14:45.424Z,100100.22
2023-04-26T18:17:13.712Z,100097.28
2023-04-26T18:19:41.685Z,100101.16
2023-04-26T18:22:09.460Z,100102.56
2023-04-26T18:24:37.455Z,100106.63
2023-04-26T18:27:06.853Z,100109.81
2023-04-26T18:29:35.089Z,100107.72
2023-04-26T18:32:03.838Z,100104.78
2023-04-26T18:34:31.708Z,100114.88
2023-04-26T18:36:59.880Z,100106.63
2023-04-26T18:39:28.127Z,100115.00
2023-04-26T18:41:55.941Z,100116.31
2023-04-26T18:44:24.103Z,100120.25
2023-04-26T18:46:55.975Z,100122.38
2023-04-26T18:49:23.890Z,100128.00
2023-04-26T18:51:52.075Z,100121.19
2023-04-26T18:54:20.030Z,100113.56
2023-04-26T18:56:48.253Z,100127.06
2023-04-26T18:59:16.858Z,100129.91
2023-04-26T19:01:44.849Z,100135.44
2023-04-26T19:04:13.478Z,100135.69
2023-04-26T19:06:41.455Z,100135.03
2023-04-26T19:09:12.031Z,100136.09
2023-04-26T19:11:40.488Z,100138.09
2023-04-26T19:14:08.322Z,100144.56
2023-04-26T19:16:36.962Z,100150.97
2023-04-26T19:19:05.889Z,100149.47
2023-04-26T19:21:34.220Z,100147.94
2023-04-26T19:24:02.181Z,100153.47
2023-04-26T19:26:30.052Z,100154.66
2023-04-26T19:28:58.561Z,100159.31
2023-04-26T19:31:26.747Z,100150.72
2023-04-26T19:33:54.595Z,100150.91
2023-04-26T19:36:22.395Z,100156.44
2023-04-26T19:38:50.350Z,100158.34
2023-04-26T19:41:18.972Z,100153.22
2023-04-26T19:43:46.823Z,100155.13
2023-04-26T19:46:14.845Z,100158.75
2023-04-26T19:48:42.634Z,100153.63
2023-04-26T19:51:10.900Z,100151.09
2023-04-26T19:53:38.920Z,100157.34
2023-04-26T19:56:06.790Z,100157.41
2023-04-26T19:58:34.584Z,100158.38
2023-04-26T20:01:02.650Z,100159.41
2023-04-26T20:03:31.055Z,100164.06
2023-04-26T20:05:59.536Z,100166.06
2023-04-26T20:08:28.701Z,100175.09
2023-04-26T20:10:57.050Z,100167.34
2023-04-26T20:13:25.327Z,100170.16
2023-04-26T20:15:53.389Z,100178.13
2023-04-26T20:18:22.053Z,100175.47
2023-04-26T20:20:51.626Z,100176.44
2023-04-26T20:23:19.506Z,100177.38
2023-04-26T20:25:47.662Z,100180.13
2023-04-26T20:28:15.556Z,100174.00
2023-04-26T20:30:43.721Z,100178.56
2023-04-26T20:33:11.593Z,100185.72
2023-04-26T20:35:39.444Z,100182.13
2023-04-26T20:38:07.675Z,100184.03
2023-04-26T20:40:35.493Z,100192.94
2023-04-26T20:43:03.629Z,100180.63
2023-04-26T20:45:31.513Z,100183.38
2023-04-26T20:48:00.332Z,100185.19
2023-04-26T20:50:28.191Z,100190.59
2023-04-26T20:52:56.021Z,100191.53
2023-04-26T20:55:24.314Z,100191.53
2023-04-26T20:57:52.189Z,100189.84
2023-04-26T21:00:20.459Z,100184.63
2023-04-26T21:02:48.378Z,100189.94
2023-04-26T21:05:16.465Z,100182.94
2023-04-26T21:07:44.886Z,100178.59
2023-04-26T21:10:13.050Z,100181.25
2023-04-26T21:12:41.914Z,100176.91
2023-04-26T21:15:09.864Z,100181.41
2023-04-26T21:17:37.675Z,100191.19
2023-04-26T21:20:06.317Z,100184.19
2023-04-26T21:22:34.369Z,100186.06
2023-04-26T21:25:02.258Z,100183.53
2023-04-26T21:27:30.756Z,100188.84
2023-04-26T21:29:58.620Z,100189.00
2023-04-26T21:32:27.342Z,100186.50
2023-04-26T21:34:55.202Z,100178.72
2023-04-26T21:37:23.476Z,100186.75
2023-04-26T21:39:51.136Z,100181.66
2023-04-26T21:42:18.919Z,100182.59
2023-04-26T21:44:47.536Z,100190.56
2023-04-26T21:47:15.316Z,100190.66
2023-04-26T21:49:43.185Z,100198.06
2023-04-26T21:52:11.024Z,100198.53
2023-04-26T21:54:39.083Z,100199.19
2023-04-26T21:57:07.477Z,100199.69
2023-04-26T21:59:35.576Z,100205.34
2023-04-26T22:02:03.659Z,100197.69
2023-04-26T22:04:32.059Z,100203.16
2023-04-26T22:06:59.885Z,100198.91
2023-04-26T22:09:27.894Z,100202.63
2023-04-26T22:11:55.575Z,100200.91
2023-04-26T22:14:23.246Z,100204.47
2023-04-26T22:16:51.354Z,100208.94
2023-04-26T22:19:19.146Z,100205.34
2023-04-26T22:21:47.242Z,100207.13
2023-04-26T22:24:14.891Z,100208.94
2023-04-26T22:26:42.682Z,100205.53
2023-04-26T22:29:10.603Z,100209.09
2023-04-26T22:31:38.540Z,100205.63
2023-04-26T22:34:06.561Z,100213.56
2023-04-26T22:36:34.183Z,100216.31
2023-04-26T22:39:02.894Z,100212.91
2023-04-26T22:41:30.684Z,100216.50
2023-04-26T22:43:58.497Z,100218.41
2023-04-26T22:46:26.538Z,100223.84
2023-04-26T22:48:54.228Z,100225.75
2023-04-26T22:51:22.019Z,100218.09
2023-04-26T22:53:49.621Z,100218.25
2023-04-26T22:56:17.280Z,100217.59
2023-04-26T22:58:45.073Z,100223.16
2023-04-26T23:01:13.056Z,100217.19
2023-04-26T23:03:41.549Z,100225.34
2023-04-26T23:06:09.353Z,100228.16
2023-04-26T23:08:36.933Z,100230.97
2023-04-26T23:11:06.298Z,100224.00
2023-04-26T23:13:33.955Z,100227.66
2023-04-26T23:16:01.688Z,100240.88
2023-04-26T23:18:29.347Z,100229.56
2023-04-26T23:20:57.132Z,100242.03
2023-04-26T23:23:24.955Z,100235.94
2023-04-26T23:25:52.534Z,100233.50
2023-04-26T23:28:20.500Z,100232.81
2023-04-26T23:30:48.127Z,100230.38
2023-04-26T23:33:16.289Z,100237.72
2023-04-26T23:35:44.307Z,100234.47
2023-04-26T23:38:11.908Z,100238.13
2023-04-26T23:40:39.665Z,100231.41
2023-04-26T23:43:07.432Z,100238.78
2023-04-26T23:45:35.421Z,100238.19
2023-04-26T23:48:03.501Z,100244.75
2023-04-26T23:50:31.168Z,100241.69
2023-04-26T23:52:58.833Z,100235.97
2023-04-26T23:55:26.434Z,100233.75
2023-04-26T23:57:54.150Z,100241.22
